Time;durP1;ratioP1;P1;durP2;ratioP2;P2;SDS_P1;SDS_P2;PMS_P1;PMS_P2;Temp;Humidity;BMP_temperature;BMP_pressure;BME280_temperature;BME280_humidity;BME280_pressure;Samples;Min_cycle;Max_cycle;Signal;HPM_P1;HPM_P2
2023/08/16 12:42:21;;;;;;;5.67;5.20;;;;;;;28.45;79.00;96280.94;7387531;19;20452;-96
2023/08/16 12:50:55;;;;;;;5.40;5.00;;;;;;;29.11;77.76;96287.00;7394507;19;20475;-95
2023/08/16 12:53:30;;;;;;;5.53;4.50;;;;;;;29.50;75.74;96380.06;7427281;19;20388;-95
2023/08/16 12:56:05;;;;;;;4.87;4.47;;;;;;;30.54;77.00;96472.84;7429075;19;20444;-95
2023/08/16 12:58:36;;;;;;;6.00;5.37;;;;;;;30.35;74.09;96329.41;7425917;19;20411;-96
2023/08/16 13:01:42;;;;;;;5.03;4.53;;;;;;;30.71;71.12;96314.19;7429656;19;20416;-96
2023/08/16 13:04:14;;;;;;;5.90;4.90;;;;;;;29.74;75.56;96374.81;7428807;19;20428;-96
2023/08/16 13:07:13;;;;;;;6.20;5.17;;;;;;;30.12;72.08;96437.19;7425958;19;20402;-95
2023/08/16 13:10:26;;;;;;;5.47;5.03;;;;;;;29.34;73.00;96312.16;7426224;19;20425;-96
2023/08/16 13:13:20;;;;;;;6.27;4.20;;;;;;;30.04;68.77;96261.34;7427628;19;20390;-95
2023/08/16 13:15:58;;;;;;;5.00;4.13;;;;;;;29.14;71.88;96326.97;7432864;19;20387;-96
2023/08/16 13:18:36;;;;;;;4.73;4.30;;;;;;;29.14;74.28;96343.31;7435108;19;20528;-96
2023/08/16 13:21:08;;;;;;;4.63;4.23;;;;;;;28.99;69.74;96249.75;7436650;19;20480;-96
2023/08/16 13:23:51;;;;;;;5.00;3.83;;;;;;;31.28;68.03;96434.56;7433921;19;20417;-96
2023/08/16 13:26:43;;;;;;;8.60;4.40;;;;;;;30.35;65.49;96279.53;7435535;19;20415;-95
2023/08/16 13:29:28;;;;;;;4.47;3.57;;;;;;;30.08;65.80;96262.00;7436425;19;20455;-96
2023/08/16 13:32:19;;;;;;;6.00;4.00;;;;;;;30.64;67.34;96356.25;7436728;19;20396;-95
2023/08/16 13:34:52;;;;;;;3.87;3.37;;;;;;;30.34;63.97;96335.34;7435248;19;20385;-96
2023/08/16 13:37:40;;;;;;;9.20;4.43;;;;;;;29.77;65.53;96292.13;7435587;19;20389;-96
2023/08/16 13:40:36;;;;;;;3.60;3.30;;;;;;;30.84;63.43;96342.06;7429184;19;20431;-95
2023/08/16 13:43:21;;;;;;;6.80;4.00;;;;;;;31.52;65.29;96371.72;7431437;19;20475;-95
2023/08/16 13:45:52;;;;;;;5.03;4.23;;;;;;;30.97;64.55;96339.16;7432631;19;20383;-95
2023/08/16 13:48:28;;;;;;;5.67;5.17;;;;;;;31.73;65.40;96344.13;7432811;19;20388;-95
2023/08/16 13:51:11;;;;;;;5.77;4.33;;;;;;;31.98;63.41;96257.31;7429830;19;20424;-96
2023/08/16 13:53:39;;;;;;;6.47;4.63;;;;;;;33.25;62.27;96410.66;7436090;19;20384;-96
2023/08/16 13:56:07;;;;;;;5.13;4.30;;;;;;;32.26;61.17;96441.22;7434479;19;20377;-95
2023/08/16 13:58:41;;;;;;;6.10;4.67;;;;;;;30.67;64.25;96316.34;7436157;19;20418;-96
2023/08/16 14:01:20;;;;;;;4.67;4.20;;;;;;;30.20;66.50;96290.34;7434907;19;20391;-96
2023/08/16 14:03:54;;;;;;;4.47;4.17;;;;;;;31.51;66.56;96414.72;7434068;19;20396;-96
2023/08/16 14:06:24;;;;;;;4.67;4.27;;;;;;;30.65;64.98;96258.72;7433199;19;20397;-96
2023/08/16 14:08:52;;;;;;;4.63;4.10;;;;;;;30.78;64.33;96333.75;7430311;19;20376;-94
2023/08/16 14:11:22;;;;;;;4.30;3.90;;;;;;;29.82;67.85;96316.06;7429147;19;20385;-95
2023/08/16 14:13:56;;;;;;;4.20;3.90;;;;;;;28.32;72.48;96271.34;7426390;19;20375;-96
2023/08/16 14:16:45;;;;;;;5.80;5.30;;;;;;;28.41;76.36;96378.25;7426270;19;20392;-95
2023/08/16 14:19:16;;;;;;;5.30;4.30;;;;;;;27.71;79.23;96291.69;7426634;19;20397;-95
2023/08/16 14:21:47;;;;;;;5.30;4.80;;;;;;;28.05;78.10;96315.41;7425919;19;20385;-96
2023/08/16 14:24:45;;;;;;;6.37;4.77;;;;;;;27.20;80.14;96199.47;7428451;19;20381;-96
2023/08/16 14:27:19;;;;;;;8.73;4.97;;;;;;;27.96;80.95;96286.19;7411489;19;20400;-95
2023/08/16 14:30:21;;;;;;;4.33;3.93;;;;;;;27.72;81.21;96325.84;7422723;19;20420;-95
2023/08/16 14:33:23;;;;;;;5.47;4.97;;;;;;;26.93;82.18;96221.63;7424941;19;21047;-95
2023/08/16 14:36:32;;;;;;;6.00;5.10;;;;;;;28.08;83.69;96407.72;7426871;19;20380;-95
2023/08/16 14:39:27;;;;;;;6.17;5.57;;;;;;;26.58;85.14;96228.91;7426315;19;20404;-95
2023/08/16 14:42:36;;;;;;;5.07;4.57;;;;;;;27.51;86.84;96419.63;7426034;19;20437;-95
2023/08/16 14:45:32;;;;;;;4.33;3.93;;;;;;;25.86;87.53;96295.97;7422324;19;20402;-96
2023/08/16 14:48:17;;;;;;;4.80;4.50;;;;;;;27.05;87.60;96419.81;7424558;19;20376;-95
2023/08/16 14:54:22;;;;;;;3.43;3.13;;;;;;;27.60;78.49;96349.09;7433160;19;20389;-96
2023/08/16 14:56:55;;;;;;;3.63;3.33;;;;;;;27.10;84.36;96453.81;7434977;19;20384;-96
2023/08/16 14:59:23;;;;;;;5.53;3.60;;;;;;;25.28;84.53;96254.47;7431890;19;20432;-96
2023/08/16 15:01:50;;;;;;;4.77;3.47;;;;;;;25.00;87.10;96226.13;7435177;19;20373;-96
2023/08/16 15:04:26;;;;;;;4.00;3.60;;;;;;;25.77;93.03;96433.97;7433754;19;20425;-96
2023/08/16 15:07:09;;;;;;;4.40;4.10;;;;;;;25.07;97.37;96338.88;7433417;19;20381;-96
2023/08/16 15:09:39;;;;;;;4.13;3.70;;;;;;;24.05;99.90;96224.34;7432161;19;20417;-96
2023/08/16 15:12:17;;;;;;;5.83;3.90;;;;;;;24.68;99.19;96227.63;7431005;19;20379;-95
2023/08/16 15:14:49;;;;;;;4.00;3.70;;;;;;;25.15;92.21;96230.03;7435071;19;20381;-96
2023/08/16 15:17:27;;;;;;;3.37;3.07;;;;;;;25.72;85.45;96276.63;7433429;19;20384;-96
2023/08/16 15:19:54;;;;;;;5.03;3.33;;;;;;;25.96;83.55;96228.38;7429821;19;20417;-96
2023/08/16 15:22:43;;;;;;;4.43;3.30;;;;;;;25.08;83.36;96219.38;7430736;19;20373;-96
2023/08/16 15:25:16;;;;;;;3.10;2.90;;;;;;;25.32;83.23;96320.88;7432438;19;20367;-96
2023/08/16 15:28:06;;;;;;;2.90;2.70;;;;;;;25.63;84.16;96409.91;7432758;19;20393;-95
2023/08/16 15:33:30;;;;;;;;;;;;;;;;;;;;;
2023/08/16 15:36:55;;;;;;;3.23;2.60;;;;;;;25.85;81.43;96315.34;7429561;19;20384;-94
2023/08/16 15:39:43;;;;;;;2.70;2.50;;;;;;;26.16;81.44;96308.31;7429873;19;20468;-96
2023/08/16 15:42:58;;;;;;;3.63;3.43;;;;;;;26.73;82.59;96419.94;7429084;19;20421;-95
2023/08/16 15:45:57;;;;;;;3.70;3.40;;;;;;;25.93;88.45;96346.50;7429972;19;20429;-95
2023/08/16 15:49:23;;;;;;;4.97;3.57;;;;;;;24.07;91.68;96228.13;7433496;19;20397;-96
2023/08/16 15:52:16;;;;;;;4.07;3.63;;;;;;;24.05;94.54;96257.53;7430212;19;20385;-95
2023/08/16 15:55:49;;;;;;;4.00;3.53;;;;;;;24.75;100.00;96435.75;7432655;19;20389;-96
2023/08/16 16:07:41;;;;;;;4.00;3.70;;;;;;;23.67;100.00;96223.91;7425064;19;20448;-95
2023/08/16 16:10:12;;;;;;;4.23;3.03;;;;;;;23.50;100.00;96223.00;7431091;19;20429;-96
2023/08/16 16:12:39;;;;;;;4.70;3.70;;;;;;;24.81;100.00;96378.44;7432089;19;20397;-94
2023/08/16 16:15:10;;;;;;;5.00;4.50;;;;;;;24.21;100.00;96304.69;7430236;19;20393;-95
2023/08/16 16:17:37;;;;;;;5.70;4.10;;;;;;;23.50;100.00;96212.97;7432096;19;20373;-95
2023/08/16 16:20:06;;;;;;;4.50;4.20;;;;;;;24.09;100.00;96311.47;7429699;19;20436;-94
2023/08/16 16:22:55;;;;;;;7.07;5.20;;;;;;;24.09;100.00;96338.50;7435490;19;20419;-96
2023/08/16 16:25:29;;;;;;;10.40;5.20;;;;;;;23.24;100.00;96327.94;7433047;19;20380;-94
2023/08/16 16:28:04;;;;;;;5.57;4.83;;;;;;;21.92;100.00;96207.59;7435902;19;20357;-95
2023/08/16 16:30:37;;;;;;;9.50;5.17;;;;;;;22.01;100.00;96275.19;7432669;19;20424;-96
2023/08/16 16:33:10;;;;;;;9.00;4.80;;;;;;;21.91;100.00;96227.63;7432547;19;20355;-94
2023/08/16 16:35:46;;;;;;;4.90;4.50;;;;;;;22.20;100.00;96200.38;7434494;19;20392;-95
2023/08/16 16:38:17;;;;;;;5.50;5.00;;;;;;;23.24;100.00;96381.91;7433311;19;20357;-95
2023/08/16 16:40:48;;;;;;;4.83;4.43;;;;;;;22.56;100.00;96400.06;7422536;19;20456;-95
2023/08/16 16:43:18;;;;;;;5.30;4.77;;;;;;;21.68;100.00;96268.63;7430320;19;20361;-95
2023/08/16 16:45:59;;;;;;;5.50;4.17;;;;;;;21.19;100.00;96156.84;7431137;19;20372;-94
2023/08/16 16:48:33;;;;;;;5.03;4.53;;;;;;;22.86;100.00;96332.72;7434148;19;20360;-95
2023/08/16 16:51:00;;;;;;;6.00;4.87;;;;;;;21.37;100.00;96179.00;7435776;19;20444;-96
2023/08/16 16:53:34;;;;;;;7.30;4.90;;;;;;;21.87;100.00;96243.03;7442174;19;20348;-95
2023/08/16 16:56:12;;;;;;;5.13;4.73;;;;;;;22.66;100.00;96361.44;7439787;19;20388;-96
2023/08/16 16:59:57;;;;;;;;;;;;;;;;;;;;;
2023/08/16 17:03:19;;;;;;;6.00;5.17;;;;;;;22.51;100.00;96360.09;7436262;19;20369;-95
2023/08/16 17:06:38;;;;;;;6.90;5.00;;;;;;;21.46;100.00;96189.25;7434309;19;20355;-95
2023/08/16 17:09:48;;;;;;;4.53;4.13;;;;;;;21.32;100.00;96152.50;7437841;19;20412;-96
2023/08/16 17:15:56;;;;;;;4.60;4.20;;;;;;;21.47;100.00;96156.56;7435064;19;20417;-95
2023/08/16 17:24:23;;;;;;;4.53;4.20;;;;;;;21.52;100.00;96166.16;7440652;19;20441;-96
2023/08/16 17:27:06;;;;;;;9.20;4.60;;;;;;;21.53;100.00;96191.91;7437042;19;20368;-96
2023/08/16 17:29:55;;;;;;;4.90;4.50;;;;;;;22.75;100.00;96364.41;7437055;19;20408;-96
2023/08/16 17:32:34;;;;;;;4.20;3.80;;;;;;;21.37;100.00;96164.75;7437673;19;20349;-96
2023/08/16 17:35:17;;;;;;;4.93;4.20;;;;;;;21.26;100.00;96175.66;7439551;19;20356;-96
2023/08/16 17:38:09;;;;;;;8.03;5.23;;;;;;;22.53;100.00;96373.94;7441296;19;20374;-96
2023/08/16 17:40:56;;;;;;;5.33;4.00;;;;;;;21.32;100.00;96176.72;7436474;19;20447;-95
2023/08/16 17:44:08;;;;;;;;;;;;;;;;;;;;;
2023/08/16 17:47:11;;;;;;;4.87;4.07;;;;;;;21.86;100.00;96192.28;7433682;19;20349;-96
2023/08/16 17:49:47;;;;;;;5.53;5.13;;;;;;;23.02;100.00;96377.97;7434552;19;20396;-95
2023/08/16 17:52:17;;;;;;;4.83;4.30;;;;;;;21.68;100.00;96195.94;7437288;19;20365;-96
2023/08/16 17:54:44;;;;;;;9.47;4.80;;;;;;;22.29;100.00;96287.59;7438970;19;20404;-96
2023/08/16 17:57:12;;;;;;;5.30;4.80;;;;;;;21.73;100.00;96195.50;7440675;19;20386;-96
2023/08/16 17:59:41;;;;;;;5.50;4.90;;;;;;;21.47;100.00;96198.84;7437774;19;20404;-96
2023/08/16 18:02:21;;;;;;;5.80;5.20;;;;;;;21.61;100.00;96228.31;7438309;19;20357;-96
2023/08/16 18:05:01;;;;;;;7.37;5.40;;;;;;;21.99;100.00;96268.69;7439056;19;20389;-96
2023/08/16 18:08:21;;;;;;;5.13;4.50;;;;;;;22.64;100.00;96388.03;7438369;19;20361;-96
2023/08/16 18:11:24;;;;;;;7.97;5.13;;;;;;;22.47;100.00;96387.09;7435806;19;20433;-96
2023/08/16 18:18:34;;;;;;;4.83;4.50;;;;;;;21.11;100.00;96242.22;7439518;19;20365;-96
2023/08/16 18:21:53;;;;;;;5.83;5.13;;;;;;;20.71;100.00;96192.59;7439733;19;20344;-96
2023/08/16 18:25:10;;;;;;;5.63;5.13;;;;;;;20.73;100.00;96190.28;7439807;19;20369;-96
2023/08/16 18:27:49;;;;;;;9.90;5.13;;;;;;;20.78;100.00;96181.03;7438656;19;20376;-96
2023/08/16 18:30:37;;;;;;;7.00;6.20;;;;;;;21.47;100.00;96274.97;7432873;19;20384;-96
2023/08/16 18:33:10;;;;;;;6.20;5.23;;;;;;;20.40;100.00;96193.53;7436784;19;20360;-95
2023/08/16 18:35:53;;;;;;;8.73;6.33;;;;;;;21.13;100.00;96290.22;7438875;19;20372;-96
2023/08/16 18:38:26;;;;;;;6.07;5.23;;;;;;;21.13;100.00;96287.53;7434945;19;20345;-96
2023/08/16 18:41:07;;;;;;;5.47;5.00;;;;;;;20.25;100.00;96208.97;7436768;19;20419;-96
2023/08/16 18:43:38;;;;;;;7.00;5.40;;;;;;;20.27;100.00;96185.94;7437533;19;20348;-96
2023/08/16 18:46:20;;;;;;;6.20;5.60;;;;;;;20.75;100.00;96268.56;7435259;19;20380;-96
2023/08/16 18:48:51;;;;;;;6.47;5.90;;;;;;;21.01;100.00;96310.28;7437676;19;20397;-94
2023/08/16 18:51:19;;;;;;;7.03;5.70;;;;;;;20.70;100.00;96300.47;7436476;19;20357;-95
2023/08/16 18:53:46;;;;;;;5.87;5.37;;;;;;;20.35;100.00;96276.06;7437917;19;20387;-96
2023/08/16 18:56:31;;;;;;;5.97;5.47;;;;;;;19.92;100.00;96215.66;7437316;19;20373;-96
2023/08/16 18:59:40;;;;;;;6.60;6.03;;;;;;;20.68;100.00;96354.59;7433483;19;20404;-96
2023/08/16 19:02:55;;;;;;;8.93;6.43;;;;;;;19.70;100.00;96233.72;7437816;19;20380;-96
2023/08/16 19:06:03;;;;;;;7.07;6.30;;;;;;;21.11;100.00;96400.88;7432928;19;20345;-95
2023/08/16 19:09:36;;;;;;;6.30;5.70;;;;;;;21.31;100.00;96401.16;7436005;19;20401;-95
2023/08/16 19:16:26;;;;;;;6.33;5.73;;;;;;;19.68;100.00;96196.56;7435952;19;20361;-95
2023/08/16 19:20:12;;;;;;;5.40;4.90;;;;;;;19.40;100.00;96192.00;7435277;19;20392;-96
2023/08/16 19:23:10;;;;;;;5.83;5.23;;;;;;;19.51;100.00;96205.41;7436323;19;20390;-96
2023/08/16 19:30:21;;;;;;;5.40;4.90;;;;;;;20.82;100.00;96334.94;7435063;19;20416;-96
2023/08/16 19:33:38;;;;;;;6.00;5.43;;;;;;;19.93;100.00;96226.00;7432044;19;20390;-95
2023/08/16 19:36:32;;;;;;;6.60;5.90;;;;;;;21.30;100.00;96406.91;7433520;19;20412;-96
2023/08/16 19:39:21;;;;;;;8.40;5.83;;;;;;;19.18;100.00;96182.47;7431801;19;20409;-95
2023/08/16 19:42:07;;;;;;;5.83;5.20;;;;;;;19.98;100.00;96275.81;7434772;19;20378;-95
2023/08/16 19:44:52;;;;;;;5.10;4.60;;;;;;;19.99;100.00;96286.16;7431600;19;20349;-96
2023/08/16 19:47:20;;;;;;;6.13;5.53;;;;;;;20.29;100.00;96309.81;7432743;19;20376;-95
2023/08/16 19:50:36;;;;;;;6.00;5.60;;;;;;;19.28;100.00;96184.38;7424485;19;20413;-96
2023/08/16 19:53:53;;;;;;;6.97;5.80;;;;;;;19.38;100.00;96197.00;7430255;19;20403;-96
2023/08/16 19:56:33;;;;;;;5.87;5.37;;;;;;;20.18;100.00;96293.00;7430303;19;20374;-96
2023/08/16 19:59:13;;;;;;;7.50;5.70;;;;;;;19.43;100.00;96195.81;7427833;19;20420;-96
2023/08/16 20:01:55;;;;;;;8.23;6.43;;;;;;;19.49;100.00;96192.34;7431666;19;20426;-96
2023/08/16 20:04:22;;;;;;;6.70;6.10;;;;;;;20.53;100.00;96345.84;7431756;19;20384;-95
2023/08/16 20:06:53;;;;;;;6.43;5.83;;;;;;;19.98;100.00;96263.16;7432230;19;20385;-95
2023/08/16 20:09:29;;;;;;;6.67;6.13;;;;;;;19.63;100.00;96212.28;7431751;19;20494;-96
2023/08/16 20:12:04;;;;;;;6.10;5.50;;;;;;;19.54;100.00;96190.44;7431028;19;20423;-96
2023/08/16 20:14:41;;;;;;;9.20;5.30;;;;;;;19.20;100.00;96156.78;7432944;19;20388;-96
2023/08/16 20:17:12;;;;;;;7.03;6.37;;;;;;;19.74;100.00;96245.97;7430646;19;20439;-96
2023/08/16 20:19:44;;;;;;;7.33;6.60;;;;;;;18.74;100.00;96142.69;7432400;19;20416;-96
2023/08/16 20:22:24;;;;;;;6.87;6.27;;;;;;;18.72;100.00;96204.69;7428155;19;20417;-96
2023/08/16 20:25:04;;;;;;;7.90;7.10;;;;;;;19.27;100.00;96289.31;7432939;19;20400;-96
2023/08/16 20:27:37;;;;;;;9.43;6.50;;;;;;;19.25;100.00;96260.22;7430544;19;20376;-96
2023/08/16 20:30:08;;;;;;;9.77;6.60;;;;;;;19.16;100.00;96286.63;7427378;19;20404;-95
2023/08/16 20:32:56;;;;;;;8.03;6.20;;;;;;;19.98;100.00;96377.81;7433087;19;20369;-96
2023/08/16 20:35:47;;;;;;;6.97;6.40;;;;;;;19.34;100.00;96279.34;7429773;19;20377;-96
2023/08/16 20:38:20;;;;;;;10.10;6.93;;;;;;;19.26;100.00;96245.66;7430551;19;20424;-96
2023/08/16 20:41:02;;;;;;;6.90;6.37;;;;;;;19.93;100.00;96370.16;7426437;19;20405;-95
2023/08/16 20:43:42;;;;;;;7.97;5.67;;;;;;;18.06;100.00;96139.16;7427995;19;20385;-96
2023/08/16 20:46:16;;;;;;;6.87;5.97;;;;;;;18.08;100.00;96148.34;7427886;19;20384;-95
2023/08/16 20:48:47;;;;;;;6.93;5.93;;;;;;;18.29;100.00;96212.59;7427794;19;20384;-95
2023/08/16 20:51:20;;;;;;;8.80;7.90;;;;;;;18.66;100.00;96264.38;7429875;19;20380;-95
2023/08/16 20:53:53;;;;;;;6.40;5.90;;;;;;;18.58;100.00;96255.53;7431787;19;20396;-95
2023/08/16 20:56:48;;;;;;;7.87;7.07;;;;;;;18.53;100.00;96269.28;7428144;19;20392;-95
2023/08/16 20:59:19;;;;;;;7.90;7.17;;;;;;;18.46;100.00;96221.06;7429036;19;20440;-96
2023/08/16 21:01:49;;;;;;;8.33;7.50;;;;;;;17.71;100.00;96117.28;7431435;19;20385;-95
2023/08/16 21:04:22;;;;;;;7.40;6.70;;;;;;;19.30;100.00;96342.16;7427929;19;20397;-95
2023/08/16 21:06:56;;;;;;;7.33;6.63;;;;;;;18.30;100.00;96174.00;7426466;19;20381;-96
2023/08/16 21:09:26;;;;;;;12.20;6.67;;;;;;;18.71;100.00;96192.44;7429632;19;20451;-96
2023/08/16 21:11:58;;;;;;;7.80;6.93;;;;;;;18.26;100.00;96111.66;7431986;19;20381;-96
2023/08/16 21:14:34;;;;;;;8.17;6.73;;;;;;;18.77;100.00;96211.56;7430630;19;20397;-96
2023/08/16 21:17:05;;;;;;;7.47;6.77;;;;;;;18.49;100.00;96225.66;7428786;19;20389;-96
2023/08/16 21:19:35;;;;;;;8.60;7.80;;;;;;;18.71;100.00;96270.13;7429894;19;20417;-96
2023/08/16 21:28:13;;;;;;;7.37;6.77;;;;;;;18.67;100.00;96287.31;7414876;19;20452;-95
2023/08/16 21:30:54;;;;;;;7.30;6.60;;;;;;;18.59;100.00;96219.56;7425378;19;20397;-96
2023/08/16 21:33:29;;;;;;;7.13;6.63;;;;;;;17.90;100.00;96190.34;7429294;19;20384;-95
2023/08/16 21:36:00;;;;;;;11.40;6.80;;;;;;;17.36;100.00;96127.78;7433353;19;20397;-96
2023/08/16 21:39:00;;;;;;;7.03;6.30;;;;;;;18.94;100.00;96327.94;7433778;19;20397;-95
2023/08/16 21:41:37;;;;;;;8.03;7.23;;;;;;;18.11;100.00;96165.53;7433874;19;20373;-96
2023/08/16 21:44:11;;;;;;;6.70;6.10;;;;;;;18.31;100.00;96188.94;7433802;19;20429;-95
2023/08/16 21:46:45;;;;;;;7.00;6.13;;;;;;;18.40;100.00;96235.97;7432847;19;20372;-96
2023/08/16 21:49:23;;;;;;;8.67;6.80;;;;;;;17.54;100.00;96131.31;7434856;19;20404;-95
2023/08/16 21:52:43;;;;;;;10.17;7.40;;;;;;;18.82;100.00;96324.47;7437664;19;20356;-96
2023/08/16 22:05:30;;;;;;;7.23;6.23;;;;;;;17.92;100.00;96194.16;7435101;19;20384;-96
2023/08/16 22:09:01;;;;;;;7.40;6.70;;;;;;;17.66;100.00;96213.88;7432514;19;20386;-96
2023/08/16 22:12:25;;;;;;;7.47;6.37;;;;;;;17.68;100.00;96216.19;7436546;19;20413;-95
2023/08/16 22:15:10;;;;;;;8.07;6.77;;;;;;;18.60;100.00;96296.09;7439837;19;20357;-95
2023/08/16 22:18:35;;;;;;;9.30;6.90;;;;;;;18.35;100.00;96297.91;7439262;19;20369;-96
2023/08/16 22:25:19;;;;;;;7.43;6.87;;;;;;;16.94;100.00;96097.03;7433850;19;20369;-96
2023/08/16 22:27:57;;;;;;;7.60;6.90;;;;;;;17.53;100.00;96185.16;7430184;19;20372;-96
2023/08/16 22:30:31;;;;;;;9.20;7.07;;;;;;;18.14;100.00;96261.88;7430230;19;20420;-95
2023/08/16 22:33:04;;;;;;;7.97;7.17;;;;;;;17.07;100.00;96105.50;7432218;19;20404;-96
2023/08/16 22:35:56;;;;;;;8.17;6.63;;;;;;;18.00;100.00;96270.63;7432701;19;20388;-96
2023/08/16 22:38:38;;;;;;;7.50;6.80;;;;;;;17.67;100.00;96231.47;7432037;19;20388;-96
2023/08/16 22:44:17;;;;;;;23.87;8.53;;;;;;;17.41;100.00;96138.13;7434936;19;20424;-96
2023/08/16 22:46:52;;;;;;;26.50;9.03;;;;;;;17.87;100.00;96233.88;7431419;19;20384;-95
2023/08/16 22:49:26;;;;;;;27.57;8.80;;;;;;;16.97;100.00;96119.56;7432458;19;20420;-95
2023/08/16 22:52:10;;;;;;;21.03;8.00;;;;;;;17.71;100.00;96245.63;7431438;19;20369;-96
